sensor_id;sensor_type;location;lat;lon;timestamp;temperature;humidity
15636;DHT22;7917;50.818;6.972;2022-08-21T00:01:15;16.00;20.10
15636;DHT22;7917;50.818;6.972;2022-08-21T00:03:43;15.90;44.70
15636;DHT22;7917;50.818;6.972;2022-08-21T00:06:10;15.80;80.40
15636;DHT22;7917;50.818;6.972;2022-08-21T00:08:39;15.70;99.90
15636;DHT22;7917;50.818;6.972;2022-08-21T00:11:06;15.60;99.90
15636;DHT22;7917;50.818;6.972;2022-08-21T00:13:35;15.60;99.90
15636;DHT22;7917;50.818;6.972;2022-08-21T00:16:03;15.60;99.90
15636;DHT22;7917;50.818;6.972;2022-08-21T00:18:31;15.60;99.90
15636;DHT22;7917;50.818;6.972;2022-08-21T00:20:58;15.60;92.30
15636;DHT22;7917;50.818;6.972;2022-08-21T00:23:25;15.60;80.00
15636;DHT22;7917;50.818;6.972;2022-08-21T00:25:54;15.50;97.30
15636;DHT22;7917;50.818;6.972;2022-08-21T00:28:21;15.50;99.90
15636;DHT22;7917;50.818;6.972;2022-08-21T00:30:48;15.40;99.90
15636;DHT22;7917;50.818;6.972;2022-08-21T00:33:16;15.40;99.90
15636;DHT22;7917;50.818;6.972;2022-08-21T00:35:43;15.40;99.90
15636;DHT22;7917;50.818;6.972;2022-08-21T00:38:11;15.40;99.90
15636;DHT22;7917;50.818;6.972;2022-08-21T00:40:42;15.40;99.90
15636;DHT22;7917;50.818;6.972;2022-08-21T00:43:12;15.30;99.90
15636;DHT22;7917;50.818;6.972;2022-08-21T00:45:40;15.20;99.90
15636;DHT22;7917;50.818;6.972;2022-08-21T00:48:08;15.20;99.90
15636;DHT22;7917;50.818;6.972;2022-08-21T00:50:39;15.10;99.90
15636;DHT22;7917;50.818;6.972;2022-08-21T00:53:07;15.10;99.90
15636;DHT22;7917;50.818;6.972;2022-08-21T00:55:37;15.10;99.90
15636;DHT22;7917;50.818;6.972;2022-08-21T00:58:06;15.10;99.90
15636;DHT22;7917;50.818;6.972;2022-08-21T01:00:39;15.00;99.90
15636;DHT22;7917;50.818;6.972;2022-08-21T01:03:09;15.00;99.90
15636;DHT22;7917;50.818;6.972;2022-08-21T01:05:38;15.00;99.90
15636;DHT22;7917;50.818;6.972;2022-08-21T01:08:06;15.00;99.90
15636;DHT22;7917;50.818;6.972;2022-08-21T01:10:34;15.00;99.90
15636;DHT22;7917;50.818;6.972;2022-08-21T01:13:03;15.00;99.90
15636;DHT22;7917;50.818;6.972;2022-08-21T01:15:38;15.00;99.90
15636;DHT22;7917;50.818;6.972;2022-08-21T01:18:09;14.90;99.90
15636;DHT22;7917;50.818;6.972;2022-08-21T01:20:37;14.90;99.90
15636;DHT22;7917;50.818;6.972;2022-08-21T01:23:07;14.80;99.90
15636;DHT22;7917;50.818;6.972;2022-08-21T01:25:34;14.80;99.90
15636;DHT22;7917;50.818;6.972;2022-08-21T01:28:07;14.80;99.90
15636;DHT22;7917;50.818;6.972;2022-08-21T01:30:37;14.70;99.90
15636;DHT22;7917;50.818;6.972;2022-08-21T01:33:05;14.70;99.90
15636;DHT22;7917;50.818;6.972;2022-08-21T01:35:32;14.70;99.90
15636;DHT22;7917;50.818;6.972;2022-08-21T01:37:59;14.60;99.90
15636;DHT22;7917;50.818;6.972;2022-08-21T01:40:28;14.60;99.90
15636;DHT22;7917;50.818;6.972;2022-08-21T01:42:55;14.50;99.90
15636;DHT22;7917;50.818;6.972;2022-08-21T01:45:22;14.50;99.90
15636;DHT22;7917;50.818;6.972;2022-08-21T01:47:50;14.40;99.90
15636;DHT22;7917;50.818;6.972;2022-08-21T01:50:33;14.40;99.90
15636;DHT22;7917;50.818;6.972;2022-08-21T01:53:00;14.40;99.90
15636;DHT22;7917;50.818;6.972;2022-08-21T01:55:29;14.40;99.90
15636;DHT22;7917;50.818;6.972;2022-08-21T01:58:00;14.40;99.90
15636;DHT22;7917;50.818;6.972;2022-08-21T02:00:28;14.40;99.90
15636;DHT22;7917;50.818;6.972;2022-08-21T02:02:55;14.40;99.90
15636;DHT22;7917;50.818;6.972;2022-08-21T02:05:22;14.40;99.90
15636;DHT22;7917;50.818;6.972;2022-08-21T02:07:51;14.30;99.90
15636;DHT22;7917;50.818;6.972;2022-08-21T02:10:22;14.30;99.90
15636;DHT22;7917;50.818;6.972;2022-08-21T02:12:51;14.30;99.90
15636;DHT22;7917;50.818;6.972;2022-08-21T02:15:19;14.20;99.90
15636;DHT22;7917;50.818;6.972;2022-08-21T02:17:48;14.20;99.90
15636;DHT22;7917;50.818;6.972;2022-08-21T02:20:18;14.20;99.90
15636;DHT22;7917;50.818;6.972;2022-08-21T02:22:46;14.20;99.90
15636;DHT22;7917;50.818;6.972;2022-08-21T02:25:13;14.20;99.90
15636;DHT22;7917;50.818;6.972;2022-08-21T02:27:42;14.10;99.90
15636;DHT22;7917;50.818;6.972;2022-08-21T02:30:15;14.10;99.90
15636;DHT22;7917;50.818;6.972;2022-08-21T02:32:42;14.10;99.90
15636;DHT22;7917;50.818;6.972;2022-08-21T02:35:11;14.10;99.90
15636;DHT22;7917;50.818;6.972;2022-08-21T02:37:47;14.00;99.90
15636;DHT22;7917;50.818;6.972;2022-08-21T02:40:15;14.00;99.90
15636;DHT22;7917;50.818;6.972;2022-08-21T02:42:43;14.00;99.90
15636;DHT22;7917;50.818;6.972;2022-08-21T02:45:13;14.00;99.90
15636;DHT22;7917;50.818;6.972;2022-08-21T02:47:46;13.90;99.90
15636;DHT22;7917;50.818;6.972;2022-08-21T02:50:18;13.90;99.90
15636;DHT22;7917;50.818;6.972;2022-08-21T02:52:46;13.90;99.90
15636;DHT22;7917;50.818;6.972;2022-08-21T02:55:13;13.80;99.90
15636;DHT22;7917;50.818;6.972;2022-08-21T02:57:40;13.80;99.90
15636;DHT22;7917;50.818;6.972;2022-08-21T03:00:09;13.80;99.90
15636;DHT22;7917;50.818;6.972;2022-08-21T03:02:52;13.80;99.90
15636;DHT22;7917;50.818;6.972;2022-08-21T03:05:21;13.70;99.90
15636;DHT22;7917;50.818;6.972;2022-08-21T03:07:49;13.80;99.90
15636;DHT22;7917;50.818;6.972;2022-08-21T03:10:17;13.80;99.90
15636;DHT22;7917;50.818;6.972;2022-08-21T03:12:45;13.80;99.90
15636;DHT22;7917;50.818;6.972;2022-08-21T03:15:14;13.80;99.90
15636;DHT22;7917;50.818;6.972;2022-08-21T03:17:43;13.80;99.90
15636;DHT22;7917;50.818;6.972;2022-08-21T03:20:13;13.80;99.90
15636;DHT22;7917;50.818;6.972;2022-08-21T03:22:41;13.80;99.90
15636;DHT22;7917;50.818;6.972;2022-08-21T03:25:09;13.70;99.90
15636;DHT22;7917;50.818;6.972;2022-08-21T03:27:37;13.80;99.90
15636;DHT22;7917;50.818;6.972;2022-08-21T03:30:05;13.40;99.90
15636;DHT22;7917;50.818;6.972;2022-08-21T03:32:35;13.70;99.90
15636;DHT22;7917;50.818;6.972;2022-08-21T03:35:03;13.70;99.90
15636;DHT22;7917;50.818;6.972;2022-08-21T03:37:32;13.60;99.90
15636;DHT22;7917;50.818;6.972;2022-08-21T03:39:59;13.70;99.90
15636;DHT22;7917;50.818;6.972;2022-08-21T03:42:26;13.70;99.90
15636;DHT22;7917;50.818;6.972;2022-08-21T03:44:53;13.60;99.90
15636;DHT22;7917;50.818;6.972;2022-08-21T03:47:21;13.60;99.90
15636;DHT22;7917;50.818;6.972;2022-08-21T03:49:48;13.60;99.90
15636;DHT22;7917;50.818;6.972;2022-08-21T03:52:16;13.60;99.90
15636;DHT22;7917;50.818;6.972;2022-08-21T03:54:45;13.50;99.90
15636;DHT22;7917;50.818;6.972;2022-08-21T03:57:12;13.50;99.90
15636;DHT22;7917;50.818;6.972;2022-08-21T03:59:39;13.50;99.90
15636;DHT22;7917;50.818;6.972;2022-08-21T04:02:07;13.50;99.90
15636;DHT22;7917;50.818;6.972;2022-08-21T04:04:34;13.40;99.90
15636;DHT22;7917;50.818;6.972;2022-08-21T04:07:02;13.40;99.90
15636;DHT22;7917;50.818;6.972;2022-08-21T04:09:29;13.30;99.90
15636;DHT22;7917;50.818;6.972;2022-08-21T04:11:58;13.30;99.90
15636;DHT22;7917;50.818;6.972;2022-08-21T04:14:26;13.40;99.90
15636;DHT22;7917;50.818;6.972;2022-08-21T04:16:53;13.30;99.90
15636;DHT22;7917;50.818;6.972;2022-08-21T04:19:21;13.30;99.90
15636;DHT22;7917;50.818;6.972;2022-08-21T04:21:48;13.30;99.90
15636;DHT22;7917;50.818;6.972;2022-08-21T04:24:16;13.30;99.90
15636;DHT22;7917;50.818;6.972;2022-08-21T04:26:43;13.30;99.90
15636;DHT22;7917;50.818;6.972;2022-08-21T04:29:11;13.30;99.90
15636;DHT22;7917;50.818;6.972;2022-08-21T04:31:41;13.30;99.90
15636;DHT22;7917;50.818;6.972;2022-08-21T04:34:09;13.30;99.90
15636;DHT22;7917;50.818;6.972;2022-08-21T04:36:36;13.30;99.90
15636;DHT22;7917;50.818;6.972;2022-08-21T04:39:05;13.30;99.90
15636;DHT22;7917;50.818;6.972;2022-08-21T04:41:32;13.30;99.90
15636;DHT22;7917;50.818;6.972;2022-08-21T04:43:59;13.30;99.90
15636;DHT22;7917;50.818;6.972;2022-08-21T04:46:28;13.30;99.90
15636;DHT22;7917;50.818;6.972;2022-08-21T04:48:55;13.30;99.90
15636;DHT22;7917;50.818;6.972;2022-08-21T04:51:25;13.30;99.90
15636;DHT22;7917;50.818;6.972;2022-08-21T04:53:58;13.40;99.90
15636;DHT22;7917;50.818;6.972;2022-08-21T04:56:29;13.40;99.90
15636;DHT22;7917;50.818;6.972;2022-08-21T04:59:00;13.40;99.90
15636;DHT22;7917;50.818;6.972;2022-08-21T05:01:33;13.50;99.90
15636;DHT22;7917;50.818;6.972;2022-08-21T05:04:02;13.60;99.90
15636;DHT22;7917;50.818;6.972;2022-08-21T05:06:34;13.70;99.90
15636;DHT22;7917;50.818;6.972;2022-08-21T05:09:04;13.70;99.90
15636;DHT22;7917;50.818;6.972;2022-08-21T05:11:32;13.60;99.90
15636;DHT22;7917;50.818;6.972;2022-08-21T05:14:00;13.60;99.90
15636;DHT22;7917;50.818;6.972;2022-08-21T05:16:28;13.60;99.90
15636;DHT22;7917;50.818;6.972;2022-08-21T05:18:56;13.60;99.90
15636;DHT22;7917;50.818;6.972;2022-08-21T05:21:24;13.60;99.90
15636;DHT22;7917;50.818;6.972;2022-08-21T05:23:51;13.60;99.90
15636;DHT22;7917;50.818;6.972;2022-08-21T05:26:18;13.70;99.90
15636;DHT22;7917;50.818;6.972;2022-08-21T05:28:48;13.80;99.90
15636;DHT22;7917;50.818;6.972;2022-08-21T05:31:24;13.90;99.90
15636;DHT22;7917;50.818;6.972;2022-08-21T05:33:59;14.00;99.90
15636;DHT22;7917;50.818;6.972;2022-08-21T05:36:28;14.10;99.90
15636;DHT22;7917;50.818;6.972;2022-08-21T05:38:55;14.30;99.90
15636;DHT22;7917;50.818;6.972;2022-08-21T05:41:22;14.40;99.90
15636;DHT22;7917;50.818;6.972;2022-08-21T05:43:49;14.50;99.90
15636;DHT22;7917;50.818;6.972;2022-08-21T05:46:16;14.60;99.90
15636;DHT22;7917;50.818;6.972;2022-08-21T05:48:44;14.70;99.90
15636;DHT22;7917;50.818;6.972;2022-08-21T05:51:13;14.80;99.90
15636;DHT22;7917;50.818;6.972;2022-08-21T05:53:42;15.00;14.10
15636;DHT22;7917;50.818;6.972;2022-08-21T05:56:09;15.10;1.00
15636;DHT22;7917;50.818;6.972;2022-08-21T05:58:37;15.20;1.00
15636;DHT22;7917;50.818;6.972;2022-08-21T06:01:05;15.30;1.00
15636;DHT22;7917;50.818;6.972;2022-08-21T06:03:36;15.50;1.00
15636;DHT22;7917;50.818;6.972;2022-08-21T06:06:04;15.70;99.90
15636;DHT22;7917;50.818;6.972;2022-08-21T06:08:31;15.90;99.90
15636;DHT22;7917;50.818;6.972;2022-08-21T06:11:00;16.10;96.80
15636;DHT22;7917;50.818;6.972;2022-08-21T06:13:28;16.30;1.00
15636;DHT22;7917;50.818;6.972;2022-08-21T06:16:03;16.50;1.00
15636;DHT22;7917;50.818;6.972;2022-08-21T06:18:30;16.60;99.90
15636;DHT22;7917;50.818;6.972;2022-08-21T06:20:57;16.80;99.90
15636;DHT22;7917;50.818;6.972;2022-08-21T06:23:29;17.00;1.00
15636;DHT22;7917;50.818;6.972;2022-08-21T06:26:15;17.10;99.90
15636;DHT22;7917;50.818;6.972;2022-08-21T06:28:42;17.40;83.90
15636;DHT22;7917;50.818;6.972;2022-08-21T06:31:11;17.60;99.90
15636;DHT22;7917;50.818;6.972;2022-08-21T06:33:39;17.80;1.00
15636;DHT22;7917;50.818;6.972;2022-08-21T06:36:08;18.00;1.00
15636;DHT22;7917;50.818;6.972;2022-08-21T06:38:36;18.10;1.00
15636;DHT22;7917;50.818;6.972;2022-08-21T06:41:03;18.20;99.90
15636;DHT22;7917;50.818;6.972;2022-08-21T06:43:32;18.30;99.90
15636;DHT22;7917;50.818;6.972;2022-08-21T06:45:59;18.30;99.90
15636;DHT22;7917;50.818;6.972;2022-08-21T06:48:26;18.60;99.90
15636;DHT22;7917;50.818;6.972;2022-08-21T06:50:55;18.40;1.00
15636;DHT22;7917;50.818;6.972;2022-08-21T06:53:22;18.90;99.90
15636;DHT22;7917;50.818;6.972;2022-08-21T06:55:49;19.10;1.00
15636;DHT22;7917;50.818;6.972;2022-08-21T06:58:17;19.30;99.90
15636;DHT22;7917;50.818;6.972;2022-08-21T07:00:49;19.30;99.90
15636;DHT22;7917;50.818;6.972;2022-08-21T07:03:19;19.40;99.90
15636;DHT22;7917;50.818;6.972;2022-08-21T07:05:47;19.60;99.90
15636;DHT22;7917;50.818;6.972;2022-08-21T07:08:15;19.70;1.00
15636;DHT22;7917;50.818;6.972;2022-08-21T07:10:42;19.80;1.00
15636;DHT22;7917;50.818;6.972;2022-08-21T07:13:12;19.90;1.00
15636;DHT22;7917;50.818;6.972;2022-08-21T07:15:40;19.90;99.90
15636;DHT22;7917;50.818;6.972;2022-08-21T07:18:08;20.20;99.90
15636;DHT22;7917;50.818;6.972;2022-08-21T07:20:35;20.10;99.90
15636;DHT22;7917;50.818;6.972;2022-08-21T07:23:10;20.20;99.90
15636;DHT22;7917;50.818;6.972;2022-08-21T07:25:39;20.40;99.90
15636;DHT22;7917;50.818;6.972;2022-08-21T07:28:08;20.40;99.90
15636;DHT22;7917;50.818;6.972;2022-08-21T07:30:36;20.60;99.90
15636;DHT22;7917;50.818;6.972;2022-08-21T07:33:03;20.80;5.50
15636;DHT22;7917;50.818;6.972;2022-08-21T07:35:31;20.90;1.00
15636;DHT22;7917;50.818;6.972;2022-08-21T07:37:58;20.90;1.00
15636;DHT22;7917;50.818;6.972;2022-08-21T07:40:26;20.90;1.00
15636;DHT22;7917;50.818;6.972;2022-08-21T07:42:53;20.90;1.00
15636;DHT22;7917;50.818;6.972;2022-08-21T07:45:21;21.00;1.00
15636;DHT22;7917;50.818;6.972;2022-08-21T07:47:52;21.00;1.00
15636;DHT22;7917;50.818;6.972;2022-08-21T07:50:19;21.10;1.00
15636;DHT22;7917;50.818;6.972;2022-08-21T07:52:48;21.30;1.00
15636;DHT22;7917;50.818;6.972;2022-08-21T07:55:16;21.30;1.00
15636;DHT22;7917;50.818;6.972;2022-08-21T07:57:44;21.50;1.00
15636;DHT22;7917;50.818;6.972;2022-08-21T08:00:14;21.70;1.00
15636;DHT22;7917;50.818;6.972;2022-08-21T08:02:45;21.60;1.00
15636;DHT22;7917;50.818;6.972;2022-08-21T08:05:16;21.70;1.00
15636;DHT22;7917;50.818;6.972;2022-08-21T08:07:47;21.80;1.00
15636;DHT22;7917;50.818;6.972;2022-08-21T08:10:18;22.00;1.00
15636;DHT22;7917;50.818;6.972;2022-08-21T08:12:46;22.00;1.00
15636;DHT22;7917;50.818;6.972;2022-08-21T08:15:17;22.30;1.00
15636;DHT22;7917;50.818;6.972;2022-08-21T08:17:48;22.20;1.00
15636;DHT22;7917;50.818;6.972;2022-08-21T08:20:18;22.40;1.00
15636;DHT22;7917;50.818;6.972;2022-08-21T08:22:49;22.60;1.00
15636;DHT22;7917;50.818;6.972;2022-08-21T08:25:18;22.70;1.00
15636;DHT22;7917;50.818;6.972;2022-08-21T08:27:45;22.70;1.00
15636;DHT22;7917;50.818;6.972;2022-08-21T08:30:15;22.80;1.00
15636;DHT22;7917;50.818;6.972;2022-08-21T08:32:46;22.80;1.00
15636;DHT22;7917;50.818;6.972;2022-08-21T08:35:13;23.00;1.00
15636;DHT22;7917;50.818;6.972;2022-08-21T08:37:43;23.00;1.00
15636;DHT22;7917;50.818;6.972;2022-08-21T08:40:15;22.90;1.00
15636;DHT22;7917;50.818;6.972;2022-08-21T08:42:45;22.90;1.00
15636;DHT22;7917;50.818;6.972;2022-08-21T08:45:17;23.00;1.00
15636;DHT22;7917;50.818;6.972;2022-08-21T08:47:48;23.10;1.00
15636;DHT22;7917;50.818;6.972;2022-08-21T08:50:19;23.40;1.00
15636;DHT22;7917;50.818;6.972;2022-08-21T08:52:56;23.50;1.00
15636;DHT22;7917;50.818;6.972;2022-08-21T08:55:36;23.50;99.90
15636;DHT22;7917;50.818;6.972;2022-08-21T08:58:05;23.40;99.90
15636;DHT22;7917;50.818;6.972;2022-08-21T09:00:32;23.50;99.90
15636;DHT22;7917;50.818;6.972;2022-08-21T09:03:01;23.80;99.90
15636;DHT22;7917;50.818;6.972;2022-08-21T09:05:36;23.80;99.90
15636;DHT22;7917;50.818;6.972;2022-08-21T09:08:38;24.00;99.90
15636;DHT22;7917;50.818;6.972;2022-08-21T09:11:15;24.10;99.90
15636;DHT22;7917;50.818;6.972;2022-08-21T09:13:50;24.10;99.90
15636;DHT22;7917;50.818;6.972;2022-08-21T09:16:27;24.10;99.90
15636;DHT22;7917;50.818;6.972;2022-08-21T09:19:06;24.20;99.90
15636;DHT22;7917;50.818;6.972;2022-08-21T09:21:41;24.40;99.90
15636;DHT22;7917;50.818;6.972;2022-08-21T09:24:22;24.40;99.90
15636;DHT22;7917;50.818;6.972;2022-08-21T09:27:02;24.30;99.90
15636;DHT22;7917;50.818;6.972;2022-08-21T09:29:34;24.50;99.90
15636;DHT22;7917;50.818;6.972;2022-08-21T09:32:03;24.60;99.90
15636;DHT22;7917;50.818;6.972;2022-08-21T09:34:31;24.30;99.90
15636;DHT22;7917;50.818;6.972;2022-08-21T09:36:58;24.40;99.90
15636;DHT22;7917;50.818;6.972;2022-08-21T09:39:27;24.60;99.90
15636;DHT22;7917;50.818;6.972;2022-08-21T09:41:57;24.80;99.90
15636;DHT22;7917;50.818;6.972;2022-08-21T09:44:27;25.00;99.90
15636;DHT22;7917;50.818;6.972;2022-08-21T09:46:55;25.10;99.90
15636;DHT22;7917;50.818;6.972;2022-08-21T09:49:28;24.90;99.90
15636;DHT22;7917;50.818;6.972;2022-08-21T09:51:56;24.70;99.90
15636;DHT22;7917;50.818;6.972;2022-08-21T09:54:29;24.90;99.90
15636;DHT22;7917;50.818;6.972;2022-08-21T09:57:00;25.10;99.90
15636;DHT22;7917;50.818;6.972;2022-08-21T09:59:45;25.30;99.90
15636;DHT22;7917;50.818;6.972;2022-08-21T10:02:34;25.50;99.90
15636;DHT22;7917;50.818;6.972;2022-08-21T10:05:07;25.90;99.90
15636;DHT22;7917;50.818;6.972;2022-08-21T10:07:37;25.90;99.90
15636;DHT22;7917;50.818;6.972;2022-08-21T10:10:08;26.00;99.90
15636;DHT22;7917;50.818;6.972;2022-08-21T10:12:48;26.30;99.90
15636;DHT22;7917;50.818;6.972;2022-08-21T10:15:22;26.30;99.90
15636;DHT22;7917;50.818;6.972;2022-08-21T10:17:58;26.10;99.90
15636;DHT22;7917;50.818;6.972;2022-08-21T10:20:37;25.70;99.90
15636;DHT22;7917;50.818;6.972;2022-08-21T10:23:31;25.80;99.90
15636;DHT22;7917;50.818;6.972;2022-08-21T10:26:07;25.60;99.90
15636;DHT22;7917;50.818;6.972;2022-08-21T10:28:44;25.40;99.90
15636;DHT22;7917;50.818;6.972;2022-08-21T10:31:18;25.40;99.90
15636;DHT22;7917;50.818;6.972;2022-08-21T10:33:53;25.70;99.90
15636;DHT22;7917;50.818;6.972;2022-08-21T10:36:32;25.50;99.90
15636;DHT22;7917;50.818;6.972;2022-08-21T10:39:07;25.90;99.90
15636;DHT22;7917;50.818;6.972;2022-08-21T10:42:00;26.30;99.90
15636;DHT22;7917;50.818;6.972;2022-08-21T10:44:36;26.50;99.90
15636;DHT22;7917;50.818;6.972;2022-08-21T10:47:08;26.70;99.90
15636;DHT22;7917;50.818;6.972;2022-08-21T10:49:41;26.30;99.90
15636;DHT22;7917;50.818;6.972;2022-08-21T10:52:36;25.80;99.90
15636;DHT22;7917;50.818;6.972;2022-08-21T10:55:10;25.80;99.90
15636;DHT22;7917;50.818;6.972;2022-08-21T10:57:41;26.00;99.90
15636;DHT22;7917;50.818;6.972;2022-08-21T11:00:14;26.10;99.90
15636;DHT22;7917;50.818;6.972;2022-08-21T11:02:49;26.00;99.90
15636;DHT22;7917;50.818;6.972;2022-08-21T11:05:21;26.30;99.90
15636;DHT22;7917;50.818;6.972;2022-08-21T11:07:54;26.20;99.90
15636;DHT22;7917;50.818;6.972;2022-08-21T11:10:25;26.20;99.90
15636;DHT22;7917;50.818;6.972;2022-08-21T11:12:56;26.30;99.90
15636;DHT22;7917;50.818;6.972;2022-08-21T11:15:41;26.40;99.90
15636;DHT22;7917;50.818;6.972;2022-08-21T11:18:19;26.70;99.90
15636;DHT22;7917;50.818;6.972;2022-08-21T11:20:52;26.60;99.90
15636;DHT22;7917;50.818;6.972;2022-08-21T11:23:26;26.50;99.90
15636;DHT22;7917;50.818;6.972;2022-08-21T11:26:00;26.80;99.90
15636;DHT22;7917;50.818;6.972;2022-08-21T11:28:32;27.00;99.90
15636;DHT22;7917;50.818;6.972;2022-08-21T11:31:07;26.90;99.90
15636;DHT22;7917;50.818;6.972;2022-08-21T11:33:56;27.20;99.90
15636;DHT22;7917;50.818;6.972;2022-08-21T11:36:31;27.40;99.90
15636;DHT22;7917;50.818;6.972;2022-08-21T11:39:06;27.50;99.90
15636;DHT22;7917;50.818;6.972;2022-08-21T11:41:42;27.50;99.90
15636;DHT22;7917;50.818;6.972;2022-08-21T11:44:16;27.00;99.90
15636;DHT22;7917;50.818;6.972;2022-08-21T11:46:54;26.90;99.90
15636;DHT22;7917;50.818;6.972;2022-08-21T11:49:42;26.90;99.90
15636;DHT22;7917;50.818;6.972;2022-08-21T11:52:18;27.10;99.90
15636;DHT22;7917;50.818;6.972;2022-08-21T11:54:52;27.10;99.90
15636;DHT22;7917;50.818;6.972;2022-08-21T11:57:27;27.20;99.90
15636;DHT22;7917;50.818;6.972;2022-08-21T12:00:01;27.30;99.90
15636;DHT22;7917;50.818;6.972;2022-08-21T12:02:35;27.20;99.90
15636;DHT22;7917;50.818;6.972;2022-08-21T12:05:05;27.40;99.90
15636;DHT22;7917;50.818;6.972;2022-08-21T12:07:36;27.80;99.90
15636;DHT22;7917;50.818;6.972;2022-08-21T12:10:07;27.80;99.90
15636;DHT22;7917;50.818;6.972;2022-08-21T12:12:36;28.20;99.90
15636;DHT22;7917;50.818;6.972;2022-08-21T12:15:14;28.50;99.90
15636;DHT22;7917;50.818;6.972;2022-08-21T12:17:55;28.50;99.90
15636;DHT22;7917;50.818;6.972;2022-08-21T12:20:40;28.40;99.90
15636;DHT22;7917;50.818;6.972;2022-08-21T12:23:29;28.30;99.90
15636;DHT22;7917;50.818;6.972;2022-08-21T12:26:18;28.30;99.90
15636;DHT22;7917;50.818;6.972;2022-08-21T12:28:46;28.30;99.90
15636;DHT22;7917;50.818;6.972;2022-08-21T12:31:19;28.50;99.90
15636;DHT22;7917;50.818;6.972;2022-08-21T12:33:56;28.60;99.90
15636;DHT22;7917;50.818;6.972;2022-08-21T12:36:39;28.40;99.90
15636;DHT22;7917;50.818;6.972;2022-08-21T12:39:13;28.30;99.90
15636;DHT22;7917;50.818;6.972;2022-08-21T12:41:47;28.00;99.90
15636;DHT22;7917;50.818;6.972;2022-08-21T12:44:21;28.10;99.90
15636;DHT22;7917;50.818;6.972;2022-08-21T12:46:54;28.70;99.90
15636;DHT22;7917;50.818;6.972;2022-08-21T12:49:28;28.90;99.90
15636;DHT22;7917;50.818;6.972;2022-08-21T12:52:03;28.80;99.90
15636;DHT22;7917;50.818;6.972;2022-08-21T12:54:38;28.40;99.90
15636;DHT22;7917;50.818;6.972;2022-08-21T12:57:07;28.50;99.90
15636;DHT22;7917;50.818;6.972;2022-08-21T12:59:38;28.60;99.90
15636;DHT22;7917;50.818;6.972;2022-08-21T13:02:16;29.00;99.90
15636;DHT22;7917;50.818;6.972;2022-08-21T13:04:47;29.30;99.90
15636;DHT22;7917;50.818;6.972;2022-08-21T13:07:22;29.10;99.90
15636;DHT22;7917;50.818;6.972;2022-08-21T13:09:52;28.90;99.90
15636;DHT22;7917;50.818;6.972;2022-08-21T13:12:21;28.80;99.90
15636;DHT22;7917;50.818;6.972;2022-08-21T13:14:51;28.80;99.90
15636;DHT22;7917;50.818;6.972;2022-08-21T13:17:24;29.00;99.90
15636;DHT22;7917;50.818;6.972;2022-08-21T13:19:58;29.00;99.90
15636;DHT22;7917;50.818;6.972;2022-08-21T13:22:27;29.30;99.90
15636;DHT22;7917;50.818;6.972;2022-08-21T13:24:54;29.20;99.90
15636;DHT22;7917;50.818;6.972;2022-08-21T13:27:25;29.20;99.90
15636;DHT22;7917;50.818;6.972;2022-08-21T13:30:08;29.60;99.90
15636;DHT22;7917;50.818;6.972;2022-08-21T13:32:38;29.80;99.90
15636;DHT22;7917;50.818;6.972;2022-08-21T13:35:21;29.90;99.90
15636;DHT22;7917;50.818;6.972;2022-08-21T13:37:49;29.60;99.90
15636;DHT22;7917;50.818;6.972;2022-08-21T13:40:20;29.20;99.90
15636;DHT22;7917;50.818;6.972;2022-08-21T13:42:49;29.10;99.90
15636;DHT22;7917;50.818;6.972;2022-08-21T13:45:22;29.10;99.90
15636;DHT22;7917;50.818;6.972;2022-08-21T13:47:50;29.10;99.90
15636;DHT22;7917;50.818;6.972;2022-08-21T13:50:21;29.10;99.90
15636;DHT22;7917;50.818;6.972;2022-08-21T13:52:56;29.00;99.90
15636;DHT22;7917;50.818;6.972;2022-08-21T13:55:25;28.60;99.90
15636;DHT22;7917;50.818;6.972;2022-08-21T13:57:59;28.60;99.90
15636;DHT22;7917;50.818;6.972;2022-08-21T14:00:29;28.70;99.90
15636;DHT22;7917;50.818;6.972;2022-08-21T14:03:02;28.70;99.90
15636;DHT22;7917;50.818;6.972;2022-08-21T14:05:35;28.90;99.90
15636;DHT22;7917;50.818;6.972;2022-08-21T14:08:06;28.80;99.90
15636;DHT22;7917;50.818;6.972;2022-08-21T14:10:36;28.70;99.90
15636;DHT22;7917;50.818;6.972;2022-08-21T14:13:14;28.80;99.90
15636;DHT22;7917;50.818;6.972;2022-08-21T14:15:55;28.80;99.90
15636;DHT22;7917;50.818;6.972;2022-08-21T14:18:23;28.60;99.90
15636;DHT22;7917;50.818;6.972;2022-08-21T14:21:03;28.40;99.90
15636;DHT22;7917;50.818;6.972;2022-08-21T14:23:32;28.40;99.90
15636;DHT22;7917;50.818;6.972;2022-08-21T14:26:00;28.20;99.90
15636;DHT22;7917;50.818;6.972;2022-08-21T14:28:30;28.10;99.90
15636;DHT22;7917;50.818;6.972;2022-08-21T14:30:58;28.10;99.90
15636;DHT22;7917;50.818;6.972;2022-08-21T14:33:37;28.00;99.90
15636;DHT22;7917;50.818;6.972;2022-08-21T14:36:06;27.90;99.90
15636;DHT22;7917;50.818;6.972;2022-08-21T14:38:36;27.40;99.90
15636;DHT22;7917;50.818;6.972;2022-08-21T14:41:10;27.20;99.90
15636;DHT22;7917;50.818;6.972;2022-08-21T14:43:42;27.40;99.90
15636;DHT22;7917;50.818;6.972;2022-08-21T14:46:11;27.60;99.90
15636;DHT22;7917;50.818;6.972;2022-08-21T14:48:38;27.60;99.90
15636;DHT22;7917;50.818;6.972;2022-08-21T14:51:07;27.70;99.90
15636;DHT22;7917;50.818;6.972;2022-08-21T14:53:34;27.80;99.90
15636;DHT22;7917;50.818;6.972;2022-08-21T14:56:01;28.00;99.90
15636;DHT22;7917;50.818;6.972;2022-08-21T14:58:32;28.40;99.90
15636;DHT22;7917;50.818;6.972;2022-08-21T15:01:00;29.00;99.90
15636;DHT22;7917;50.818;6.972;2022-08-21T15:03:29;29.50;99.90
15636;DHT22;7917;50.818;6.972;2022-08-21T15:05:58;29.60;99.90
15636;DHT22;7917;50.818;6.972;2022-08-21T15:08:27;29.50;99.90
15636;DHT22;7917;50.818;6.972;2022-08-21T15:11:07;28.80;99.90
15636;DHT22;7917;50.818;6.972;2022-08-21T15:13:36;28.10;99.90
15636;DHT22;7917;50.818;6.972;2022-08-21T15:16:05;27.90;99.90
15636;DHT22;7917;50.818;6.972;2022-08-21T15:18:34;27.80;99.90
15636;DHT22;7917;50.818;6.972;2022-08-21T15:21:01;27.80;99.90
15636;DHT22;7917;50.818;6.972;2022-08-21T15:23:30;27.50;99.90
15636;DHT22;7917;50.818;6.972;2022-08-21T15:25:57;27.10;99.90
15636;DHT22;7917;50.818;6.972;2022-08-21T15:28:25;26.90;99.90
15636;DHT22;7917;50.818;6.972;2022-08-21T15:30:52;27.10;99.90
15636;DHT22;7917;50.818;6.972;2022-08-21T15:33:19;27.20;99.90
15636;DHT22;7917;50.818;6.972;2022-08-21T15:35:48;27.20;99.90
15636;DHT22;7917;50.818;6.972;2022-08-21T15:38:15;27.20;99.90
15636;DHT22;7917;50.818;6.972;2022-08-21T15:40:44;27.00;99.90
15636;DHT22;7917;50.818;6.972;2022-08-21T15:43:21;26.70;99.90
15636;DHT22;7917;50.818;6.972;2022-08-21T15:45:49;26.50;99.90
15636;DHT22;7917;50.818;6.972;2022-08-21T15:48:16;26.40;99.90
15636;DHT22;7917;50.818;6.972;2022-08-21T15:50:44;26.20;99.90
15636;DHT22;7917;50.818;6.972;2022-08-21T15:53:11;26.20;99.90
15636;DHT22;7917;50.818;6.972;2022-08-21T15:55:39;26.20;99.90
15636;DHT22;7917;50.818;6.972;2022-08-21T15:58:12;26.70;99.90
15636;DHT22;7917;50.818;6.972;2022-08-21T16:00:39;27.20;99.90
15636;DHT22;7917;50.818;6.972;2022-08-21T16:03:11;27.30;99.90
15636;DHT22;7917;50.818;6.972;2022-08-21T16:05:40;27.30;99.90
15636;DHT22;7917;50.818;6.972;2022-08-21T16:08:08;27.60;99.90
15636;DHT22;7917;50.818;6.972;2022-08-21T16:10:37;27.80;99.90